Time;durP1;ratioP1;P1;durP2;ratioP2;P2;SDS_P1;SDS_P2;PMS_P1;PMS_P2;Temp;Humidity;BMP_temperature;BMP_pressure;BME280_temperature;BME280_humidity;BME280_pressure;Samples;Min_cycle;Max_cycle;Signal;HPM_P1;HPM_P2
2021/04/08 00:01:09;;;;;;;2.20;1.38;;;;;;;22.85;46.46;100513.00;5072785;28;20479;-63
2021/04/08 00:03:35;;;;;;;3.05;1.30;;;;;;;22.81;46.19;100508.94;5072884;28;20122;-64
2021/04/08 00:06:00;;;;;;;2.85;1.65;;;;;;;22.80;46.35;100515.47;5072757;28;20107;-64
2021/04/08 00:08:25;;;;;;;3.25;1.50;;;;;;;22.80;47.33;100518.22;5072775;28;20066;-63
2021/04/08 00:10:50;;;;;;;1.38;0.88;;;;;;;22.79;47.56;100511.03;5072887;28;20165;-63
2021/04/08 00:13:16;;;;;;;2.85;0.85;;;;;;;22.77;47.99;100521.38;5072521;28;20032;-63
2021/04/08 00:15:41;;;;;;;3.13;1.50;;;;;;;22.78;48.12;100523.06;5072810;28;20031;-63
2021/04/08 00:18:06;;;;;;;2.47;1.17;;;;;;;22.78;48.13;100517.56;5072623;28;20056;-64
2021/04/08 00:20:31;;;;;;;1.65;0.88;;;;;;;22.77;48.17;100515.91;5072507;28;20029;-63
2021/04/08 00:22:57;;;;;;;2.35;0.82;;;;;;;22.76;48.63;100523.28;5072741;28;20042;-63
2021/04/08 00:25:22;;;;;;;3.33;1.70;;;;;;;22.76;48.86;100519.69;5072409;28;20036;-64
2021/04/08 00:27:47;;;;;;;6.13;1.42;;;;;;;22.76;48.62;100526.00;5081378;28;20031;-63
2021/04/08 00:30:13;;;;;;;2.83;1.00;;;;;;;22.72;49.02;100523.91;5092539;28;20042;-62
2021/04/08 00:32:39;;;;;;;4.03;1.27;;;;;;;22.74;49.19;100530.00;5092719;28;20028;-64
2021/04/08 00:35:05;;;;;;;2.63;1.35;;;;;;;22.74;49.08;100527.28;5092582;28;20030;-63
2021/04/08 00:37:31;;;;;;;2.63;1.25;;;;;;;22.73;49.15;100536.56;5073041;28;20126;-63
2021/04/08 00:39:56;;;;;;;3.63;1.50;;;;;;;22.73;49.38;100528.34;5072640;28;20033;-64
2021/04/08 00:42:22;;;;;;;3.42;1.42;;;;;;;22.70;49.13;100531.50;5072530;28;20017;-63
2021/04/08 00:44:47;;;;;;;3.45;1.42;;;;;;;22.72;48.80;100538.44;5072434;28;20032;-63
2021/04/08 00:47:12;;;;;;;2.95;1.15;;;;;;;22.71;48.43;100539.50;5072684;28;20024;-63
2021/04/08 00:49:38;;;;;;;2.17;1.10;;;;;;;22.69;48.55;100544.34;5072416;28;20404;-63
2021/04/08 00:52:03;;;;;;;2.60;0.88;;;;;;;22.68;48.24;100542.66;5072250;28;20048;-63
2021/04/08 00:54:29;;;;;;;2.25;1.05;;;;;;;22.70;48.19;100558.88;5072095;28;20016;-63
2021/04/08 00:56:54;;;;;;;2.67;1.20;;;;;;;22.68;49.00;100552.78;5072321;28;20020;-63
2021/04/08 00:59:20;;;;;;;2.13;1.00;;;;;;;22.68;48.18;100555.53;5071979;28;20459;-64
2021/04/08 01:01:45;;;;;;;2.35;1.30;;;;;;;22.69;48.33;100551.72;5072367;28;20467;-62
2021/04/08 01:04:11;;;;;;;2.97;1.10;;;;;;;22.69;48.04;100558.03;5072480;28;20029;-63
2021/04/08 01:06:36;;;;;;;2.70;1.20;;;;;;;22.70;48.57;100553.41;5071895;28;20507;-64
2021/04/08 01:09:04;;;;;;;2.08;0.90;;;;;;;22.71;48.42;100560.56;5054216;28;20024;-63
2021/04/08 01:11:29;;;;;;;2.45;1.20;;;;;;;22.71;47.93;100560.56;5071993;28;20101;-63
2021/04/08 01:13:55;;;;;;;3.20;1.05;;;;;;;22.70;48.59;100561.63;5072267;28;20064;-64
2021/04/08 01:16:35;;;;;;;2.20;1.10;;;;;;;22.69;47.58;100562.69;5072150;28;20435;-63
2021/04/08 01:19:12;;;;;;;2.53;1.20;;;;;;;22.71;48.00;100566.91;5071953;28;20039;-63
2021/04/08 01:21:48;;;;;;;2.63;1.08;;;;;;;22.69;47.67;100565.41;5054169;28;20031;-64
2021/04/08 01:24:38;;;;;;;3.25;1.13;;;;;;;22.75;47.58;100564.59;5071789;28;20107;-63
2021/04/08 01:27:25;;;;;;;3.40;1.40;;;;;;;22.76;48.13;100569.00;5074487;28;20024;-64
2021/04/08 01:30:14;;;;;;;2.38;1.00;;;;;;;22.79;47.60;100568.59;5092308;28;20020;-64
2021/04/08 01:32:45;;;;;;;3.17;1.00;;;;;;;22.75;47.72;100561.84;5092483;28;20027;-63
2021/04/08 01:35:11;;;;;;;3.08;0.90;;;;;;;22.79;47.99;100569.44;5090313;28;20498;-63
2021/04/08 01:38:14;;;;;;;2.60;1.20;;;;;;;22.83;47.04;100575.38;5071484;28;20049;-64
2021/04/08 01:40:41;;;;;;;2.42;1.02;;;;;;;22.81;47.24;100574.72;5072111;28;20082;-64
2021/04/08 01:43:08;;;;;;;2.30;1.23;;;;;;;22.89;47.81;100580.03;5071713;28;20472;-63
2021/04/08 01:45:34;;;;;;;3.05;1.13;;;;;;;22.92;47.41;100582.38;5073383;28;20043;-64
2021/04/08 01:48:02;;;;;;;4.15;1.70;;;;;;;22.94;47.50;100583.00;5075468;28;20020;-63
2021/04/08 01:50:28;;;;;;;2.13;1.00;;;;;;;22.79;48.22;100579.56;5075229;28;20103;-64
2021/04/08 01:52:54;;;;;;;4.07;1.50;;;;;;;22.70;48.77;100581.66;5075789;28;20020;-64
2021/04/08 01:55:21;;;;;;;2.58;1.15;;;;;;;22.63;48.75;100580.78;5075315;28;20352;-63
2021/04/08 01:57:47;;;;;;;1.88;1.00;;;;;;;22.61;49.38;100582.03;5057494;28;20024;-64
2021/04/08 02:00:14;;;;;;;3.15;1.35;;;;;;;22.61;49.31;100587.50;5074990;28;20379;-63
2021/04/08 02:02:42;;;;;;;3.40;1.55;;;;;;;22.50;49.19;100584.31;5075291;28;20031;-63
2021/04/08 02:05:16;;;;;;;2.28;1.30;;;;;;;22.47;48.85;100587.47;5056651;28;20020;-63
2021/04/08 02:07:45;;;;;;;2.00;1.20;;;;;;;22.44;49.29;100603.47;5075080;28;20380;-64
2021/04/08 02:10:13;;;;;;;3.55;1.50;;;;;;;22.42;49.03;100600.94;5074887;28;20070;-62
2021/04/08 02:12:40;;;;;;;3.70;1.35;;;;;;;22.40;49.75;100605.78;5075061;28;20037;-64
2021/04/08 02:15:07;;;;;;;2.30;0.90;;;;;;;22.40;49.18;100603.03;5074943;28;20076;-64
2021/04/08 02:17:35;;;;;;;2.65;1.30;;;;;;;22.39;49.14;100611.44;5074844;28;20030;-63
2021/04/08 02:20:07;;;;;;;4.15;1.42;;;;;;;22.36;48.95;100609.97;5074738;28;20114;-64
2021/04/08 02:22:33;;;;;;;2.53;1.13;;;;;;;22.36;49.07;100604.50;5074867;28;20399;-64
2021/04/08 02:24:58;;;;;;;3.08;1.20;;;;;;;22.34;49.08;100598.38;5074724;28;20028;-63
2021/04/08 02:27:24;;;;;;;2.58;1.20;;;;;;;22.35;49.23;100605.53;5074482;28;20482;-64
2021/04/08 02:29:50;;;;;;;2.95;1.05;;;;;;;22.36;49.02;100612.72;5074800;28;20440;-64
2021/04/08 02:32:16;;;;;;;2.85;1.20;;;;;;;22.35;49.05;100621.13;5074283;28;20454;-64
2021/04/08 02:34:42;;;;;;;2.65;1.10;;;;;;;22.34;49.52;100625.75;5074695;28;20056;-64
2021/04/08 02:37:07;;;;;;;3.88;1.25;;;;;;;22.32;49.55;100627.84;5073981;28;20132;-63
2021/04/08 02:39:32;;;;;;;2.88;1.13;;;;;;;22.33;49.16;100623.19;5074372;28;20467;-63
2021/04/08 02:41:58;;;;;;;2.05;1.10;;;;;;;22.34;49.24;100628.50;5074471;28;20028;-63
2021/04/08 02:44:23;;;;;;;2.90;1.10;;;;;;;22.34;49.09;100620.28;5074188;28;20468;-64
2021/04/08 02:46:48;;;;;;;2.92;1.35;;;;;;;22.35;48.89;100632.94;5074423;28;20024;-64
2021/04/08 02:49:14;;;;;;;2.67;1.27;;;;;;;22.33;48.32;100624.03;5074141;28;20017;-63
2021/04/08 02:51:56;;;;;;;3.20;1.00;;;;;;;22.35;48.62;100627.47;5074377;28;20035;-64
2021/04/08 02:54:49;;;;;;;2.10;1.15;;;;;;;22.34;48.51;100631.25;5073989;28;20021;-65
2021/04/08 02:57:21;;;;;;;3.90;1.33;;;;;;;22.33;48.62;100635.00;5072811;28;20596;-62
2021/04/08 02:59:53;;;;;;;2.63;1.00;;;;;;;22.33;48.60;100632.25;5074103;28;20055;-63
2021/04/08 03:02:21;;;;;;;3.08;1.23;;;;;;;22.32;48.33;100630.56;5073800;28;20379;-64
2021/04/08 03:04:53;;;;;;;1.88;1.13;;;;;;;22.30;48.60;100624.47;5073895;28;20066;-63
2021/04/08 03:07:25;;;;;;;2.35;1.35;;;;;;;22.32;48.69;100627.00;5073654;28;20051;-62
2021/04/08 03:09:53;;;;;;;2.25;1.23;;;;;;;22.32;48.17;100636.06;5073983;28;20012;-64
2021/04/08 03:12:20;;;;;;;1.60;1.05;;;;;;;22.32;48.08;100638.78;5073536;28;20398;-63
2021/04/08 03:14:49;;;;;;;2.53;1.20;;;;;;;22.30;48.65;100624.47;5073913;28;20463;-63
2021/04/08 03:17:18;;;;;;;2.53;1.15;;;;;;;22.32;48.79;100632.47;5073444;28;20020;-63
2021/04/08 03:19:46;;;;;;;2.72;1.27;;;;;;;22.27;48.78;100622.13;5073693;28;20201;-63
2021/04/08 03:22:13;;;;;;;2.17;1.02;;;;;;;22.28;48.94;100626.56;5073518;28;20021;-63
2021/04/08 03:24:42;;;;;;;4.78;1.30;;;;;;;22.32;49.32;100638.78;5073636;28;20429;-64
2021/04/08 03:27:08;;;;;;;2.00;1.13;;;;;;;22.30;48.89;100635.41;5076394;28;20036;-63
2021/04/08 03:29:35;;;;;;;3.38;1.42;;;;;;;22.34;48.99;100636.72;5093677;28;20099;-64
2021/04/08 03:32:01;;;;;;;3.20;1.15;;;;;;;22.34;48.83;100644.94;5093701;28;20027;-63
2021/04/08 03:34:27;;;;;;;1.77;0.90;;;;;;;22.32;48.95;100644.25;5076651;28;20016;-63
2021/04/08 03:36:52;;;;;;;5.82;1.83;;;;;;;22.37;49.49;100649.16;5073023;28;20051;-64
2021/04/08 03:39:18;;;;;;;4.50;1.42;;;;;;;22.44;49.31;100655.50;5072957;28;20032;-63
2021/04/08 03:41:44;;;;;;;3.30;0.90;;;;;;;22.44;49.38;100648.13;5073382;28;20131;-62
2021/04/08 03:44:14;;;;;;;3.65;1.58;;;;;;;22.49;49.67;100659.31;5072978;28;20028;-63
2021/04/08 03:46:42;;;;;;;2.90;1.60;;;;;;;22.48;49.37;100654.88;5073153;28;20024;-64
2021/04/08 03:49:10;;;;;;;2.20;1.00;;;;;;;22.52;49.23;100661.69;5055171;28;20066;-62
2021/04/08 03:51:37;;;;;;;2.78;1.00;;;;;;;22.50;49.29;100663.75;5073132;28;20588;-63
2021/04/08 03:54:05;;;;;;;2.20;1.15;;;;;;;22.50;49.54;100669.22;5072904;28;20036;-63
2021/04/08 03:56:33;;;;;;;2.40;1.23;;;;;;;22.52;49.02;100671.78;5072897;28;20052;-63
2021/04/08 03:58:59;;;;;;;3.53;1.40;;;;;;;22.50;49.32;100674.69;5072929;28;20468;-63
2021/04/08 04:01:25;;;;;;;3.05;1.10;;;;;;;22.61;49.70;100675.19;5073303;28;20031;-63
2021/04/08 04:03:51;;;;;;;3.92;1.23;;;;;;;23.94;46.55;100660.75;5073074;28;20028;-63
2021/04/08 04:06:17;;;;;;;4.50;1.15;;;;;;;24.29;46.58;100670.44;5072300;28;20034;-63
2021/04/08 04:08:42;;;;;;;1.88;1.10;;;;;;;24.40;46.13;100659.84;5072560;28;20028;-63
2021/04/08 04:11:11;;;;;;;3.47;1.52;;;;;;;24.59;46.53;100664.44;5072699;28;20051;-64
2021/04/08 04:13:36;;;;;;;2.20;1.50;;;;;;;24.82;46.59;100670.25;5073082;28;20051;-62
2021/04/08 04:16:05;;;;;;;3.53;1.02;;;;;;;24.86;46.53;100673.44;5072702;28;20028;-63
2021/04/08 04:18:31;;;;;;;4.20;1.38;;;;;;;24.93;47.46;100660.50;5072531;28;20459;-64
2021/04/08 04:20:56;;;;;;;2.35;1.20;;;;;;;24.97;46.89;100671.88;5072682;28;20028;-62
2021/04/08 04:23:22;;;;;;;3.65;1.70;;;;;;;24.96;46.68;100648.19;5072484;28;20025;-63
2021/04/08 04:25:47;;;;;;;4.15;1.35;;;;;;;24.96;46.46;100665.53;5072647;28;20026;-63
2021/04/08 04:28:13;;;;;;;3.28;1.60;;;;;;;24.97;46.15;100672.72;5072341;28;20097;-63
2021/04/08 04:30:38;;;;;;;3.70;1.52;;;;;;;25.06;45.24;100662.38;5072563;28;20028;-64
2021/04/08 04:33:03;;;;;;;2.10;1.30;;;;;;;25.08;45.30;100668.50;5072434;28;20035;-63
2021/04/08 04:35:29;;;;;;;4.22;1.55;;;;;;;25.08;45.29;100662.97;5072117;28;20039;-63
2021/04/08 04:37:54;;;;;;;2.67;1.50;;;;;;;25.15;45.01;100669.28;5072318;28;20046;-64
2021/04/08 04:40:19;;;;;;;3.33;1.40;;;;;;;25.16;44.57;100665.47;5072440;28;20496;-63
2021/04/08 04:42:45;;;;;;;3.67;1.65;;;;;;;25.20;44.79;100666.72;5072523;28;20035;-64
2021/04/08 04:45:12;;;;;;;4.78;1.63;;;;;;;25.21;44.42;100670.31;5072141;28;20114;-63
2021/04/08 04:47:41;;;;;;;3.13;1.20;;;;;;;25.15;43.92;100669.28;5072679;28;20104;-63
2021/04/08 04:50:09;;;;;;;2.40;1.35;;;;;;;25.18;44.01;100669.66;5072243;28;20463;-64
2021/04/08 04:52:34;;;;;;;2.72;1.35;;;;;;;25.23;43.83;100677.28;5072646;28;20028;-63
2021/04/08 04:55:00;;;;;;;2.50;1.30;;;;;;;25.26;44.06;100673.25;5072216;28;20158;-63
2021/04/08 04:57:25;;;;;;;4.72;1.67;;;;;;;25.29;43.83;100676.41;5072039;28;20028;-64
2021/04/08 04:59:50;;;;;;;3.38;1.45;;;;;;;25.27;42.60;100672.19;5070666;28;20025;-63
2021/04/08 05:02:15;;;;;;;2.85;1.30;;;;;;;25.31;43.31;100665.16;5087277;28;20036;-62
2021/04/08 05:04:42;;;;;;;4.30;1.38;;;;;;;25.32;43.02;100656.69;5080486;28;20456;-64
2021/04/08 05:07:08;;;;;;;4.05;1.73;;;;;;;25.37;43.45;100676.16;5070976;28;20062;-63
2021/04/08 05:09:33;;;;;;;4.57;1.60;;;;;;;25.49;43.10;100666.09;5071685;28;20422;-63
2021/04/08 05:11:59;;;;;;;3.75;1.52;;;;;;;25.45;43.46;100659.34;5071750;28;20034;-64
2021/04/08 05:14:24;;;;;;;3.53;1.50;;;;;;;25.45;43.01;100664.84;5071500;28;20538;-63
2021/04/08 05:16:49;;;;;;;3.63;1.42;;;;;;;25.41;43.13;100674.63;5071897;28;20107;-64
2021/04/08 05:19:14;;;;;;;2.70;1.35;;;;;;;25.40;43.13;100678.44;5053791;28;20128;-64
2021/04/08 05:21:40;;;;;;;3.60;1.13;;;;;;;25.46;42.92;100677.53;5075367;28;20069;-64
2021/04/08 05:24:05;;;;;;;3.03;1.40;;;;;;;25.54;43.56;100683.88;5075776;28;20110;-64
2021/04/08 05:26:31;;;;;;;2.95;1.40;;;;;;;25.45;43.25;100686.88;5075770;28;20036;-64
2021/04/08 05:28:56;;;;;;;2.40;1.42;;;;;;;25.50;43.00;100678.78;5094714;28;20020;-64
2021/04/08 05:31:21;;;;;;;2.38;1.25;;;;;;;25.49;42.85;100688.09;5095708;28;20024;-65
2021/04/08 05:33:46;;;;;;;3.40;1.42;;;;;;;25.51;42.45;100685.13;5096121;28;20024;-64
2021/04/08 05:36:12;;;;;;;1.92;0.95;;;;;;;25.50;42.92;100689.78;5076642;28;20102;-64
2021/04/08 05:38:37;;;;;;;3.00;1.45;;;;;;;25.52;42.93;100688.72;5075592;28;20031;-65
2021/04/08 05:41:02;;;;;;;3.75;1.25;;;;;;;25.54;42.66;100686.63;5075507;28;20076;-64
2021/04/08 05:43:27;;;;;;;2.45;1.02;;;;;;;25.61;42.74;100690.16;5075644;28;20028;-64
2021/04/08 05:45:53;;;;;;;3.33;1.10;;;;;;;25.63;42.63;100688.84;5075598;28;20020;-65
2021/04/08 05:48:18;;;;;;;2.80;1.45;;;;;;;25.57;42.84;100699.94;5075206;28;20036;-64
2021/04/08 05:50:43;;;;;;;3.30;1.45;;;;;;;25.58;42.79;100698.84;5075571;28;20120;-64
2021/04/08 05:53:09;;;;;;;2.75;1.45;;;;;;;25.60;42.71;100699.47;5075110;28;20032;-65
2021/04/08 05:55:34;;;;;;;3.38;1.50;;;;;;;25.60;42.94;100700.31;5075559;28;20066;-64
2021/04/08 05:57:59;;;;;;;3.25;1.30;;;;;;;25.66;43.58;100693.06;5075306;28;20025;-64
2021/04/08 06:00:25;;;;;;;2.45;1.10;;;;;;;25.72;43.75;100708.75;5074936;28;20024;-65
2021/04/08 06:02:50;;;;;;;2.75;1.30;;;;;;;25.73;44.37;100693.91;5074186;28;20024;-64
2021/04/08 06:05:16;;;;;;;2.75;1.35;;;;;;;25.82;44.74;100699.97;5080899;28;20032;-64
2021/04/08 06:07:42;;;;;;;2.55;1.08;;;;;;;25.74;44.11;100701.09;5079121;28;20116;-64
2021/04/08 06:10:08;;;;;;;1.77;1.10;;;;;;;25.76;44.66;100696.22;5073290;28;20455;-65
2021/04/08 06:12:34;;;;;;;3.30;1.50;;;;;;;25.75;44.75;100697.28;5073051;28;20031;-65
2021/04/08 06:14:59;;;;;;;3.30;1.15;;;;;;;25.78;45.05;100707.84;5071494;28;20025;-63
2021/04/08 06:17:24;;;;;;;3.17;1.63;;;;;;;25.74;44.79;100701.09;5072768;28;20055;-63
2021/04/08 06:19:50;;;;;;;2.53;1.55;;;;;;;25.82;44.77;100702.72;5073465;28;20020;-65
2021/04/08 06:22:15;;;;;;;5.75;1.85;;;;;;;25.79;44.84;100699.34;5072875;28;20032;-63
2021/04/08 06:24:41;;;;;;;3.55;1.58;;;;;;;25.86;44.18;100707.53;5073529;28;20383;-64
2021/04/08 06:27:07;;;;;;;5.00;2.00;;;;;;;25.89;44.99;100707.13;5072492;28;20028;-64
2021/04/08 06:29:32;;;;;;;2.88;1.30;;;;;;;25.89;44.63;100714.53;5072032;28;20070;-63
2021/04/08 06:31:58;;;;;;;4.22;1.73;;;;;;;25.89;45.26;100706.28;5068836;28;20032;-63
2021/04/08 06:34:23;;;;;;;6.78;2.00;;;;;;;25.97;45.07;100706.81;5069955;28;20024;-65
2021/04/08 06:36:48;;;;;;;4.47;1.55;;;;;;;25.99;44.44;100710.19;5061392;28;20076;-63
2021/04/08 06:39:14;;;;;;;7.18;1.75;;;;;;;25.97;44.82;100706.81;5069504;28;20036;-65
2021/04/08 06:41:40;;;;;;;2.63;1.20;;;;;;;25.95;44.50;100703.47;5073126;28;20056;-65
2021/04/08 06:44:07;;;;;;;2.28;1.02;;;;;;;25.92;44.21;100714.94;5057248;28;20052;-67
2021/04/08 06:46:39;;;;;;;1.77;0.98;;;;;;;25.94;44.08;100715.53;5074943;28;20035;-66
2021/04/08 06:49:20;;;;;;;3.60;1.38;;;;;;;25.96;43.89;100720.81;5069274;28;20024;-68
2021/04/08 06:51:50;;;;;;;2.88;1.00;;;;;;;26.02;43.42;100723.50;5073809;28;20203;-64
2021/04/08 06:54:17;;;;;;;2.30;0.90;;;;;;;25.86;43.32;100718.56;5073244;28;20112;-65
2021/04/08 06:56:42;;;;;;;1.67;0.90;;;;;;;25.86;43.66;100721.31;5071488;28;20028;-64
2021/04/08 06:59:09;;;;;;;1.77;0.88;;;;;;;25.82;43.92;100716.50;5072286;28;20029;-63
2021/04/08 07:01:35;;;;;;;2.42;0.68;;;;;;;25.77;43.37;100722.69;5071653;28;20513;-63
2021/04/08 07:04:01;;;;;;;1.63;0.57;;;;;;;25.72;43.47;100717.00;5069976;28;20108;-68
2021/04/08 07:06:26;;;;;;;2.80;1.15;;;;;;;25.65;43.51;100725.25;5066548;28;20140;-67
2021/04/08 07:08:51;;;;;;;1.73;0.60;;;;;;;25.65;43.31;100729.94;5055398;28;20028;-67
2021/04/08 07:11:17;;;;;;;2.38;0.80;;;;;;;25.62;42.28;100727.63;5058926;28;20055;-67
2021/04/08 07:13:42;;;;;;;2.25;0.82;;;;;;;25.62;42.70;100725.72;5073492;28;20070;-66
2021/04/08 07:16:09;;;;;;;2.22;1.08;;;;;;;25.54;42.49;100728.75;5078995;28;20159;-66
2021/04/08 07:18:34;;;;;;;1.73;0.70;;;;;;;25.56;42.42;100731.28;5072350;28;20032;-67
2021/04/08 07:21:00;;;;;;;1.23;0.60;;;;;;;25.49;42.15;100726.63;5073346;28;20042;-66
2021/04/08 07:23:25;;;;;;;2.55;0.80;;;;;;;25.50;42.21;100728.31;5073922;28;20363;-66
2021/04/08 07:26:08;;;;;;;1.75;0.70;;;;;;;25.55;42.78;100732.34;5072164;28;20017;-66
2021/04/08 07:28:37;;;;;;;1.23;0.60;;;;;;;25.49;42.45;100736.81;5069204;28;20143;-67
2021/04/08 07:31:30;;;;;;;1.75;0.88;;;;;;;25.46;42.62;100743.59;5070921;28;20034;-66
2021/04/08 07:33:59;;;;;;;1.67;0.70;;;;;;;25.58;42.41;100740.16;5056049;28;20047;-66
2021/04/08 07:36:33;;;;;;;1.80;0.82;;;;;;;25.59;42.40;100736.34;5074798;28;20510;-67
2021/04/08 07:39:00;;;;;;;2.28;0.73;;;;;;;25.64;42.26;100744.75;5056304;28;20394;-67
2021/04/08 07:41:32;;;;;;;1.95;0.80;;;;;;;25.59;42.35;100742.69;5071644;28;20064;-67
2021/04/08 07:44:03;;;;;;;1.88;0.90;;;;;;;25.60;42.58;100749.88;5071446;28;20025;-66
2021/04/08 07:46:34;;;;;;;1.48;0.60;;;;;;;25.63;42.75;100737.56;5069924;28;20028;-64
2021/04/08 07:49:00;;;;;;;1.95;0.77;;;;;;;25.72;42.77;100741.78;5057078;28;20020;-76
2021/04/08 07:51:35;;;;;;;2.45;1.05;;;;;;;25.78;42.69;100729.88;5072371;28;20025;-61
2021/04/08 07:54:17;;;;;;;2.42;1.02;;;;;;;25.88;43.12;100751.41;5075314;28;20020;-69
2021/04/08 07:56:44;;;;;;;3.05;1.58;;;;;;;25.94;43.85;100756.00;5069378;28;20070;-66
2021/04/08 07:59:19;;;;;;;3.22;1.67;;;;;;;25.99;44.56;100757.03;5076143;28;20032;-67
2021/04/08 08:01:46;;;;;;;3.88;1.92;;;;;;;26.02;45.19;100748.31;5071808;28;20028;-66
2021/04/08 08:04:23;;;;;;;3.47;1.40;;;;;;;26.06;45.56;100755.06;5073730;28;20043;-66
2021/04/08 08:06:49;;;;;;;5.30;1.92;;;;;;;26.13;45.88;100748.66;5054140;28;20033;-67
2021/04/08 08:09:19;;;;;;;2.90;1.20;;;;;;;26.13;45.87;100749.50;5074995;28;20028;-66
2021/04/08 08:11:44;;;;;;;4.28;1.63;;;;;;;26.12;45.73;100753.31;5071565;28;20111;-65
2021/04/08 08:14:10;;;;;;;4.68;1.90;;;;;;;26.16;45.77;100760.06;5071952;28;20107;-65
2021/04/08 08:16:35;;;;;;;5.07;2.00;;;;;;;26.13;45.80;100741.22;5070370;28;20028;-66
2021/04/08 08:19:01;;;;;;;3.92;1.70;;;;;;;26.09;45.63;100745.50;5070207;28;20052;-65
2021/04/08 08:21:27;;;;;;;2.53;1.20;;;;;;;26.08;45.39;100755.69;5075058;28;20035;-65
2021/04/08 08:23:55;;;;;;;5.20;2.30;;;;;;;26.03;45.41;100755.53;5071268;28;20032;-66
2021/04/08 08:26:37;;;;;;;3.90;1.52;;;;;;;26.05;45.44;100764.41;5072478;28;20258;-66
2021/04/08 08:29:03;;;;;;;4.82;1.55;;;;;;;26.00;45.75;100766.97;5070328;28;20103;-65
2021/04/08 08:31:40;;;;;;;4.53;1.80;;;;;;;26.02;45.15;100764.00;5070437;28;20482;-69
2021/04/08 08:34:10;;;;;;;4.47;1.60;;;;;;;25.94;44.73;100756.84;5065869;28;20107;-64
2021/04/08 08:36:40;;;;;;;3.60;1.85;;;;;;;26.03;44.61;100761.03;5069957;28;20040;-68
2021/04/08 08:39:12;;;;;;;3.22;1.80;;;;;;;26.00;44.06;100766.97;5066910;28;20463;-67
2021/04/08 08:41:39;;;;;;;4.35;1.55;;;;;;;25.97;44.64;100764.66;5067244;28;20025;-63
2021/04/08 08:44:09;;;;;;;4.10;1.63;;;;;;;26.00;44.22;100755.94;5069846;28;20078;-68
2021/04/08 08:46:43;;;;;;;2.88;1.30;;;;;;;26.02;44.20;100764.84;5070371;28;20040;-69
2021/04/08 08:49:11;;;;;;;3.50;1.45;;;;;;;26.05;44.64;100772.69;5070480;28;20033;-67
2021/04/08 08:51:37;;;;;;;4.53;1.85;;;;;;;26.04;44.17;100773.75;5071185;28;20031;-69
2021/04/08 08:54:04;;;;;;;3.30;1.50;;;;;;;26.05;44.31;100769.91;5071028;28;20028;-69
2021/04/08 08:56:30;;;;;;;3.10;1.27;;;;;;;26.07;44.32;100777.97;5074386;28;20047;-67
2021/04/08 08:58:57;;;;;;;5.90;1.65;;;;;;;26.11;43.95;100772.84;5073968;28;20099;-65
2021/04/08 09:01:22;;;;;;;3.88;1.70;;;;;;;26.11;43.67;100765.41;5074932;28;20020;-63
2021/04/08 09:03:49;;;;;;;4.50;1.77;;;;;;;26.06;44.14;100754.22;5075360;28;20162;-63
2021/04/08 09:06:15;;;;;;;3.15;1.27;;;;;;;26.14;43.53;100764.13;5074817;28;20021;-63
2021/04/08 09:08:45;;;;;;;4.63;1.92;;;;;;;26.16;44.03;100767.47;5074666;28;20028;-64
2021/04/08 09:11:23;;;;;;;3.72;1.83;;;;;;;26.16;44.30;100767.47;5074631;28;20016;-66
2021/04/08 09:13:53;;;;;;;3.00;1.48;;;;;;;26.23;43.97;100776.56;5074894;28;20374;-65
2021/04/08 09:16:18;;;;;;;4.38;1.85;;;;;;;26.23;44.02;100787.56;5072530;28;20321;-64
2021/04/08 09:19:05;;;;;;;3.90;2.15;;;;;;;26.28;44.36;100776.72;5074789;28;20501;-64
2021/04/08 09:21:52;;;;;;;3.95;1.30;;;;;;;26.26;44.68;100781.59;5074368;28;20107;-66
2021/04/08 09:24:21;;;;;;;5.82;1.80;;;;;;;26.20;44.53;100779.72;5071858;28;20052;-63
2021/04/08 09:26:50;;;;;;;4.68;1.77;;;;;;;26.24;44.87;100778.25;5073231;28;20028;-69
2021/04/08 09:29:33;;;;;;;3.80;1.73;;;;;;;26.18;44.71;100768.09;5073487;28;20020;-67
2021/04/08 09:32:24;;;;;;;4.38;1.77;;;;;;;26.19;44.28;100787.16;5066527;28;20032;-67
2021/04/08 09:35:05;;;;;;;3.28;1.45;;;;;;;26.20;44.33;100782.50;5069736;28;20027;-67
2021/04/08 09:37:48;;;;;;;3.05;1.60;;;;;;;26.12;44.54;100774.53;5074002;28;20064;-65
2021/04/08 09:40:23;;;;;;;4.43;2.17;;;;;;;26.15;44.47;100791.44;5072520;28;20024;-67
2021/04/08 09:43:02;;;;;;;2.78;1.23;;;;;;;26.10;44.68;100780.25;5072774;28;20032;-68
2021/04/08 09:45:28;;;;;;;5.05;2.08;;;;;;;26.06;44.81;100782.63;5075306;28;20020;-68
2021/04/08 09:48:09;;;;;;;2.97;1.42;;;;;;;26.03;44.79;100777.56;5075095;28;20392;-69
2021/04/08 09:50:58;;;;;;;4.75;1.98;;;;;;;26.05;44.63;100769.06;5075485;28;20028;-68
2021/04/08 09:53:50;;;;;;;3.80;1.55;;;;;;;26.02;44.09;100786.88;5074893;28;20066;-69
2021/04/08 09:56:15;;;;;;;3.95;1.70;;;;;;;26.13;44.67;100781.72;5066159;28;20024;-68
2021/04/08 09:58:41;;;;;;;7.40;2.35;;;;;;;26.14;45.48;100781.50;5067185;28;20432;-68
2021/04/08 10:01:08;;;;;;;4.80;2.20;;;;;;;26.19;45.17;100775.28;5074537;28;20083;-68
2021/04/08 10:03:39;;;;;;;3.30;1.33;;;;;;;26.18;45.15;100781.88;5062661;28;20400;-69
2021/04/08 10:06:22;;;;;;;3.85;1.42;;;;;;;26.22;44.63;100783.13;5074280;28;20483;-67
2021/04/08 10:08:48;;;;;;;3.17;1.67;;;;;;;26.19;45.63;100780.81;5071988;28;20025;-68
2021/04/08 10:11:24;;;;;;;3.75;1.52;;;;;;;26.20;45.16;100782.50;5053679;28;20044;-69
2021/04/08 10:13:49;;;;;;;4.28;1.80;;;;;;;26.21;45.19;100775.94;5071675;28;20086;-69
2021/04/08 10:16:16;;;;;;;3.88;1.58;;;;;;;26.25;45.51;100779.94;5071270;28;20462;-68
2021/04/08 10:18:42;;;;;;;5.90;1.95;;;;;;;26.23;46.24;100771.03;5071906;28;20100;-68
2021/04/08 10:21:19;;;;;;;5.20;2.15;;;;;;;26.30;45.65;100777.31;5072395;28;20021;-68
2021/04/08 10:23:50;;;;;;;4.53;2.10;;;;;;;26.29;45.45;100782.00;5072342;28;20103;-68
2021/04/08 10:26:18;;;;;;;4.95;2.17;;;;;;;26.33;45.60;100782.38;5074536;28;20033;-68
2021/04/08 10:28:52;;;;;;;3.38;1.92;;;;;;;26.26;45.26;100781.59;5073192;28;20035;-68
2021/04/08 10:31:26;;;;;;;5.88;1.80;;;;;;;26.31;45.18;100792.78;5074404;28;20067;-69
2021/04/08 10:33:55;;;;;;;3.53;1.60;;;;;;;26.32;45.27;100787.06;5074464;28;20033;-68
2021/04/08 10:36:28;;;;;;;4.68;1.65;;;;;;;26.24;45.14;100790.09;5056219;28;20094;-69
2021/04/08 10:39:14;;;;;;;3.45;1.70;;;;;;;26.17;45.17;100782.94;5054890;28;20028;-68
2021/04/08 10:41:57;;;;;;;3.90;1.98;;;;;;;26.17;44.97;100778.28;5054878;28;20028;-69
2021/04/08 10:44:26;;;;;;;4.55;1.83;;;;;;;26.19;44.71;100780.81;5062918;28;20032;-68
2021/04/08 10:46:53;;;;;;;2.75;1.25;;;;;;;26.18;44.29;100779.13;5074510;28;20465;-69
2021/04/08 10:49:21;;;;;;;3.85;1.40;;;;;;;26.17;44.27;100782.94;5072250;28;20028;-68
2021/04/08 10:51:47;;;;;;;3.10;1.95;;;;;;;26.13;44.21;100777.06;5074398;28;20039;-69
2021/04/08 10:54:13;;;;;;;4.22;1.50;;;;;;;26.22;43.98;100780.38;5074186;28;20027;-67
2021/04/08 10:56:39;;;;;;;2.75;1.38;;;;;;;26.29;44.33;100781.16;5074188;28;20021;-68
2021/04/08 10:59:21;;;;;;;2.78;1.38;;;;;;;26.21;44.18;100784.22;5074106;28;20028;-69
2021/04/08 11:01:48;;;;;;;3.83;1.80;;;;;;;26.23;44.39;100784.81;5074295;28;20103;-68
2021/04/08 11:04:14;;;;;;;3.50;1.67;;;;;;;26.26;43.61;100784.38;5073950;28;20406;-68
2021/04/08 11:06:40;;;;;;;3.10;1.60;;;;;;;26.24;44.13;100789.25;5073661;28;20028;-69
2021/04/08 11:09:06;;;;;;;3.95;1.70;;;;;;;26.20;43.93;100776.97;5073040;28;20352;-68
2021/04/08 11:11:32;;;;;;;5.05;1.95;;;;;;;26.19;44.04;100778.06;5074388;28;20047;-69
2021/04/08 11:13:57;;;;;;;4.93;2.05;;;;;;;26.26;43.46;100776.09;5073924;28;20410;-69
2021/04/08 11:16:25;;;;;;;5.68;2.00;;;;;;;26.27;44.04;100778.63;5073950;28;20135;-71
2021/04/08 11:18:51;;;;;;;5.32;2.08;;;;;;;26.29;44.48;100770.97;5072623;28;20037;-69
2021/04/08 11:21:17;;;;;;;5.30;1.67;;;;;;;26.29;44.85;100759.09;5072772;28;20095;-67
2021/04/08 11:23:43;;;;;;;4.57;1.98;;;;;;;26.39;44.17;100765.00;5073359;28;20050;-67
2021/04/08 11:26:09;;;;;;;6.35;1.73;;;;;;;26.38;43.47;100774.34;5054651;28;20028;-70
2021/04/08 11:28:41;;;;;;;3.28;1.42;;;;;;;26.30;44.53;100783.69;5073122;28;20544;-66
2021/04/08 11:31:18;;;;;;;3.65;1.38;;;;;;;26.33;44.33;100765.84;5072028;28;20087;-69